»·PEaware :: RCH13 KLSV-KVBG

RCH13 :: KLSV-KVBG

FLIGHT INFORMATION

Flight Status: Arrived
Operator:
US Air Force AMC
More flights by this operator :: More flights under this callsign
Pilot: Damien O. (2415)
Aircraft: LOCKHEED C-5 GALAXY
(C5)
More flights by this aircraft type
Origin: KLSV Nellis AFB
United States
Destination: KVBG Vandenberg AFB
United States
More flights between these airports :: More routes between these airports
Route: +FYTTR2 FYTTR NID VBG
File this flight plan on PilotEdge
Remarks: full home cockpit running prepar3d / V /
Altitude:
(Current/Filed)
420ft
Speed:
(Current/Filed)
350kts
Departed: 07-Sep-13 12:26 PM
Arrived: 07-Sep-13 01:17 PM
Distance/Time
Traveled:
285nm/0:50
Distance/Time
To Go:
Arrived

Flight Plot

Page will automatically refresh every two minutes.

Flight plan parsing failed; only flown route is shown


Map Options




Map Legend


Flown Route
Filed Route
Departure Airport
Arrival Airport
Navaid (VOR, NDB)
Fix

Horizontal Profiles

Position Reports

Time Latitude Longitude Heading Altitude Ground
Speed
07-Sep-13 12:13 36.244984 -115.033615 268 1887ft 0kts
07-Sep-13 12:14 36.244984 -115.033615 268 1887ft 0kts
07-Sep-13 12:15 36.244984 -115.033615 268 1887ft 0kts
07-Sep-13 12:16 36.244984 -115.033615 268 1887ft 0kts
07-Sep-13 12:17 36.244984 -115.033617 268 1887ft 0kts
07-Sep-13 12:18 36.244984 -115.033618 268 1887ft 0kts
07-Sep-13 12:19 36.244984 -115.033620 268 1887ft 0kts
07-Sep-13 12:20 36.245096 -115.033697 325 1887ft 2kts
07-Sep-13 12:21 36.247110 -115.027504 88 1887ft 30kts
07-Sep-13 12:22 36.247130 -115.026177 80 1887ft 0kts
07-Sep-13 12:23 36.247102 -115.025533 107 1887ft 11kts
07-Sep-13 12:24 36.244454 -115.027832 221 1887ft 73kts
07-Sep-13 12:25 36.211715 -115.065230 235 2528ft 212kts
07-Sep-13 12:26 36.213888 -115.144385 290 4401ft 254kts
07-Sep-13 12:27 36.257421 -115.216773 292 7881ft 251kts
07-Sep-13 12:28 36.272878 -115.302628 279 11923ft 260kts
07-Sep-13 12:29 36.286000 -115.391480 279 16259ft 256kts
07-Sep-13 12:30 36.307125 -115.468549 294 20551ft 228kts
07-Sep-13 12:31 36.333610 -115.560182 283 21489ft 332kts
07-Sep-13 12:32 36.350025 -115.689868 264 23335ft 428kts
07-Sep-13 12:33 36.313608 -115.842408 249 26395ft 487kts
07-Sep-13 12:34 36.260684 -116.001197 248 29408ft 502kts
07-Sep-13 12:35 36.206465 -116.160302 248 32400ft 497kts
07-Sep-13 12:36 36.153636 -116.316804 248 35234ft 488kts
07-Sep-13 12:37 36.101431 -116.472598 248 37054ft 492kts
07-Sep-13 12:38 36.049012 -116.629206 248 38847ft 491kts
07-Sep-13 12:39 35.996735 -116.784991 248 40640ft 488kts
07-Sep-13 12:40 35.944787 -116.939164 248 42430ft 482kts
07-Sep-13 12:41 35.892299 -117.094320 248 42962ft 500kts
07-Sep-13 12:42 35.836259 -117.259288 248 41257ft 538kts
07-Sep-13 12:43 35.777242 -117.431819 247 39542ft 550kts
07-Sep-13 12:44 35.717273 -117.605960 247 37821ft 553kts
07-Sep-13 12:45 35.661455 -117.773212 249 35367ft 520kts
07-Sep-13 12:46 35.610548 -117.933598 249 32868ft 487kts
07-Sep-13 12:47 35.562193 -118.086373 249 30363ft 473kts
07-Sep-13 12:48 35.514481 -118.236236 249 27864ft 468kts
07-Sep-13 12:49 35.466764 -118.385099 249 25367ft 467kts
07-Sep-13 12:50 35.419348 -118.532034 249 23990ft 447kts
07-Sep-13 12:51 35.375320 -118.667556 249 23994ft 409kts
07-Sep-13 12:52 35.334230 -118.793643 249 23283ft 400kts
07-Sep-13 12:53 35.292241 -118.922147 249 21600ft 410kts
07-Sep-13 12:54 35.249319 -119.052826 249 19913ft 415kts
07-Sep-13 12:55 35.206295 -119.183104 249 18998ft 400kts
07-Sep-13 12:56 35.166123 -119.304086 249 18993ft 368kts
07-Sep-13 12:57 35.126894 -119.422091 249 17359ft 383kts
07-Sep-13 12:58 35.086048 -119.544479 248 15652ft 393kts
07-Sep-13 12:59 35.044151 -119.669402 248 13942ft 399kts
07-Sep-13 13:00 35.009017 -119.773683 248 12498ft 362kts
07-Sep-13 13:01 34.971515 -119.884168 249 10422ft 272kts
07-Sep-13 13:02 34.948198 -119.953172 249 9110ft 261kts
07-Sep-13 13:03 34.920372 -120.035237 249 8949ft 261kts
07-Sep-13 13:04 34.892203 -120.117991 248 7169ft 259kts
07-Sep-13 13:05 34.865365 -120.196477 249 6018ft 244kts
07-Sep-13 13:06 34.839910 -120.270854 249 5982ft 232kts
07-Sep-13 13:07 34.815255 -120.342675 249 4476ft 221kts
07-Sep-13 13:08 34.791418 -120.412096 249 3064ft 216kts
07-Sep-13 13:09 34.764832 -120.478034 223 2956ft 216kts
07-Sep-13 13:10 34.713988 -120.456342 130 2771ft 224kts
07-Sep-13 13:11 34.664993 -120.456915 245 2598ft 195kts
07-Sep-13 13:12 34.675949 -120.514440 312 1759ft 176kts
07-Sep-13 13:13 34.712276 -120.555092 311 701ft 166kts
07-Sep-13 13:14 34.737101 -120.583991 318 386ft 52kts
07-Sep-13 13:15 34.740260 -120.581367 127 386ft 13kts
07-Sep-13 13:16 34.734479 -120.574577 134 386ft 25kts
07-Sep-13 13:17 34.733527 -120.569816 94 386ft 17kts
07-Sep-13 13:18 34.733094 -120.566733 226 386ft 0kts
07-Sep-13 13:19 34.733094 -120.566733 226 386ft 0kts

Navigation Log

Ident Type
Flight plan parsing failed, navigation log unavailable